createdAt,value
2022-11-17T00:02:10.387Z,0.57
2022-11-17T00:04:38.958Z,0.20
2022-11-17T00:07:07.555Z,0.87
2022-11-17T00:09:36.105Z,0.30
2022-11-17T00:12:22.985Z,0.47
2022-11-17T00:14:51.788Z,0.30
2022-11-17T00:17:21.719Z,0.20
2022-11-17T00:20:08.099Z,0.60
2022-11-17T00:22:36.634Z,1.20
2022-11-17T00:25:05.338Z,0.60
2022-11-17T00:27:33.898Z,0.20
2022-11-17T00:30:02.430Z,0.20
2022-11-17T00:32:50.368Z,0.30
2022-11-17T00:35:19.015Z,0.30
2022-11-17T00:38:01.519Z,0.20
2022-11-17T00:40:30.214Z,0.20
2022-11-17T00:42:58.799Z,0.20
2022-11-17T00:45:27.365Z,0.23
2022-11-17T00:47:57.247Z,0.20
2022-11-17T00:50:25.803Z,0.30
2022-11-17T00:52:54.332Z,0.30
2022-11-17T00:55:23.102Z,0.30
2022-11-17T00:57:51.768Z,0.20
2022-11-17T01:00:21.464Z,0.20
2022-11-17T01:02:50.049Z,0.10
2022-11-17T01:05:19.910Z,0.20
2022-11-17T01:07:48.449Z,0.30
2022-11-17T01:10:16.999Z,0.10
2022-11-17T01:12:45.556Z,0.20
2022-11-17T01:15:14.104Z,0.30
2022-11-17T01:17:42.666Z,0.10
2022-11-17T01:20:11.498Z,0.10
2022-11-17T01:22:41.389Z,0.10
2022-11-17T01:25:10.094Z,0.10
2022-11-17T01:27:38.760Z,0.20
2022-11-17T01:30:07.848Z,0.43
2022-11-17T01:32:36.397Z,0.20
2022-11-17T01:35:05.097Z,0.50
2022-11-17T01:37:33.659Z,0.10
2022-11-17T01:40:03.648Z,0.13
2022-11-17T01:42:32.200Z,0.10
2022-11-17T01:45:02.020Z,0.20
2022-11-17T01:47:33.335Z,0.13
2022-11-17T01:50:04.224Z,0.10
2022-11-17T01:52:33.662Z,0.20
2022-11-17T01:55:04.155Z,0.10
2022-11-17T01:57:35.043Z,0.10
2022-11-17T02:00:05.731Z,0.20
2022-11-17T02:02:35.483Z,0.00
2022-11-17T02:05:08.708Z,0.10
2022-11-17T02:07:38.274Z,0.10
2022-11-17T02:10:09.012Z,0.17
2022-11-17T02:12:38.053Z,0.10
2022-11-17T02:15:07.400Z,0.40
2022-11-17T02:17:38.207Z,0.10
2022-11-17T02:20:09.324Z,0.30
2022-11-17T02:22:55.967Z,0.13
2022-11-17T02:25:31.967Z,0.17
2022-11-17T02:28:05.204Z,0.20
2022-11-17T02:30:36.368Z,0.20
2022-11-17T02:33:06.763Z,0.23
2022-11-17T02:35:39.332Z,0.20
2022-11-17T02:38:10.481Z,0.20
2022-11-17T02:40:41.357Z,0.23
2022-11-17T02:43:31.082Z,0.20
2022-11-17T02:46:00.981Z,0.30
2022-11-17T02:48:32.467Z,0.20
2022-11-17T02:51:01.375Z,0.27
2022-11-17T02:53:31.015Z,0.20
2022-11-17T02:56:01.811Z,0.30
2022-11-17T02:58:31.708Z,0.30
2022-11-17T03:01:09.974Z,0.53
2022-11-17T03:03:45.344Z,0.20
2022-11-17T03:06:18.232Z,0.23
2022-11-17T03:08:49.494Z,0.20
2022-11-17T03:11:18.510Z,0.37
2022-11-17T03:13:55.976Z,0.40
2022-11-17T03:16:27.437Z,0.40
2022-11-17T03:19:02.662Z,0.37
2022-11-17T03:21:33.135Z,0.40
2022-11-17T03:24:04.151Z,1.10
2022-11-17T03:26:34.427Z,0.40
2022-11-17T03:29:07.169Z,0.50
2022-11-17T03:31:36.808Z,0.77
2022-11-17T03:34:07.007Z,0.90
2022-11-17T03:36:36.903Z,1.20
2022-11-17T03:39:07.845Z,1.23
2022-11-17T03:41:38.683Z,1.47
2022-11-17T03:44:08.761Z,0.97
2022-11-17T03:46:38.708Z,1.20
2022-11-17T03:49:10.555Z,1.50
2022-11-17T03:51:39.271Z,1.10
2022-11-17T03:54:08.415Z,0.80
2022-11-17T03:56:39.962Z,0.90
2022-11-17T03:59:13.103Z,1.13
2022-11-17T04:01:42.882Z,1.93
2022-11-17T04:04:14.661Z,1.90
2022-11-17T04:06:43.191Z,1.57
2022-11-17T04:09:11.777Z,2.30
2022-11-17T04:11:58.162Z,1.60
2022-11-17T04:14:54.272Z,2.23
2022-11-17T04:17:22.838Z,2.40
2022-11-17T04:19:51.352Z,1.97
2022-11-17T04:22:19.955Z,1.53
2022-11-17T04:24:48.487Z,1.80
2022-11-17T04:27:34.803Z,1.90
2022-11-17T04:30:04.890Z,2.97
2022-11-17T04:32:33.427Z,2.17
2022-11-17T04:35:01.972Z,1.80
2022-11-17T04:37:30.510Z,2.33
2022-11-17T04:39:59.048Z,1.73
2022-11-17T04:42:26.595Z,1.60
2022-11-17T04:44:55.128Z,2.40
2022-11-17T04:47:24.995Z,2.23
2022-11-17T04:49:53.599Z,1.90
2022-11-17T04:52:25.507Z,3.43
2022-11-17T04:54:58.117Z,1.30
2022-11-17T04:57:26.651Z,1.63
2022-11-17T04:59:55.215Z,1.93
2022-11-17T05:02:25.308Z,1.60
2022-11-17T05:04:56.998Z,1.33
2022-11-17T05:07:25.610Z,0.93
2022-11-17T05:09:54.178Z,1.10
2022-11-17T05:12:40.560Z,1.47
2022-11-17T05:15:09.631Z,0.97
2022-11-17T05:17:38.548Z,0.93
2022-11-17T05:20:07.646Z,0.80
2022-11-17T05:22:54.082Z,0.60
2022-11-17T05:25:22.596Z,1.20
2022-11-17T05:27:51.178Z,0.83
2022-11-17T05:30:19.873Z,1.47
2022-11-17T05:32:49.735Z,0.80
2022-11-17T05:35:18.487Z,1.37
2022-11-17T05:37:47.093Z,1.10
2022-11-17T05:40:15.708Z,0.83
2022-11-17T05:42:44.264Z,0.57
2022-11-17T05:45:12.988Z,0.97
2022-11-17T05:47:41.527Z,1.10
2022-11-17T05:50:11.811Z,0.93
2022-11-17T05:52:40.335Z,1.13
2022-11-17T05:55:09.362Z,1.20
2022-11-17T05:57:37.943Z,1.03
2022-11-17T06:00:07.125Z,0.87
2022-11-17T06:02:39.724Z,0.70
2022-11-17T06:05:09.364Z,0.43
2022-11-17T06:07:40.210Z,0.83
2022-11-17T06:10:09.072Z,0.90
2022-11-17T06:12:37.676Z,0.77
2022-11-17T06:15:06.683Z,0.93
2022-11-17T06:17:37.091Z,0.80
2022-11-17T06:20:08.465Z,1.03
2022-11-17T06:22:37.239Z,1.60
2022-11-17T06:25:08.922Z,1.27
2022-11-17T06:27:38.536Z,1.37
2022-11-17T06:30:08.091Z,1.27
2022-11-17T06:32:38.300Z,0.73
2022-11-17T06:35:07.731Z,1.73
2022-11-17T06:37:36.372Z,0.70
2022-11-17T06:40:05.218Z,1.00
2022-11-17T06:42:52.935Z,0.93
2022-11-17T06:45:21.486Z,1.23
2022-11-17T06:47:50.064Z,0.73
2022-11-17T06:50:18.938Z,0.73
2022-11-17T06:52:47.524Z,0.60
2022-11-17T06:55:16.270Z,1.13
2022-11-17T06:57:51.915Z,0.80
2022-11-17T07:00:22.241Z,1.23
2022-11-17T07:02:50.872Z,0.83
2022-11-17T07:05:19.505Z,1.00
2022-11-17T07:07:48.078Z,1.50
2022-11-17T07:10:16.722Z,0.90
2022-11-17T07:12:47.750Z,1.23
2022-11-17T07:15:16.422Z,1.03
2022-11-17T07:17:45.018Z,1.10
2022-11-17T07:20:13.734Z,1.00
2022-11-17T07:22:42.460Z,1.03
2022-11-17T07:25:11.714Z,0.90
2022-11-17T07:27:40.349Z,0.70
2022-11-17T07:30:11.392Z,1.90
2022-11-17T07:32:39.953Z,1.00
2022-11-17T07:35:08.975Z,0.70
2022-11-17T07:37:37.590Z,1.10
2022-11-17T07:40:06.669Z,0.70
2022-11-17T07:42:35.766Z,1.20
2022-11-17T07:45:04.347Z,0.97
2022-11-17T07:47:34.295Z,1.33
2022-11-17T07:50:04.197Z,1.20
2022-11-17T07:52:37.243Z,1.07
2022-11-17T07:55:09.677Z,1.23
2022-11-17T07:57:38.253Z,1.17
2022-11-17T08:00:09.247Z,0.77
2022-11-17T08:02:39.167Z,1.33
2022-11-17T08:05:08.143Z,1.63
2022-11-17T08:07:37.273Z,1.37
2022-11-17T08:10:06.221Z,0.80
2022-11-17T08:12:34.797Z,0.93
2022-11-17T08:15:03.386Z,0.97
2022-11-17T08:17:32.130Z,0.90
2022-11-17T08:20:02.101Z,0.63
2022-11-17T08:22:30.660Z,1.03
2022-11-17T08:24:59.294Z,1.03
2022-11-17T08:27:28.001Z,0.90
2022-11-17T08:29:56.582Z,1.13
2022-11-17T08:32:25.234Z,0.83
2022-11-17T08:34:53.842Z,1.03
2022-11-17T08:37:23.770Z,0.83
2022-11-17T08:39:52.352Z,0.80
2022-11-17T08:42:20.972Z,0.77
2022-11-17T08:44:49.582Z,1.40
2022-11-17T08:47:18.178Z,0.47
2022-11-17T08:49:46.750Z,0.40
2022-11-17T08:52:15.463Z,0.77
2022-11-17T08:54:45.407Z,0.70
2022-11-17T08:57:14.017Z,1.00
2022-11-17T08:59:42.642Z,0.90
2022-11-17T09:02:13.113Z,0.60
2022-11-17T09:04:41.727Z,0.50
2022-11-17T09:07:10.386Z,0.63
2022-11-17T09:09:39.036Z,0.73
2022-11-17T09:12:09.337Z,0.60
2022-11-17T09:14:37.949Z,0.53
2022-11-17T09:17:06.493Z,0.50
2022-11-17T09:19:35.081Z,0.83
2022-11-17T09:22:03.637Z,0.40
2022-11-17T09:24:32.909Z,0.40
2022-11-17T09:27:02.934Z,0.73
2022-11-17T09:29:32.873Z,0.80
2022-11-17T09:32:01.425Z,0.40
2022-11-17T09:34:30.457Z,0.97
2022-11-17T09:36:59.170Z,0.50
2022-11-17T09:39:27.760Z,0.43
2022-11-17T09:41:58.011Z,0.73
2022-11-17T09:44:30.254Z,0.40
2022-11-17T09:47:03.915Z,0.80
2022-11-17T09:49:35.767Z,0.50
2022-11-17T09:52:07.010Z,0.80
2022-11-17T09:54:40.686Z,1.13
2022-11-17T09:57:12.699Z,1.13
2022-11-17T09:59:41.263Z,0.47
2022-11-17T10:02:12.326Z,0.80
2022-11-17T10:04:40.961Z,1.17
2022-11-17T10:07:11.462Z,0.50
2022-11-17T10:09:42.059Z,0.50
2022-11-17T10:12:16.461Z,0.87
2022-11-17T10:14:45.098Z,1.47
2022-11-17T10:17:15.061Z,1.07
2022-11-17T10:19:45.228Z,1.30
2022-11-17T10:22:22.144Z,1.77
2022-11-17T10:24:52.187Z,1.23
2022-11-17T10:27:22.481Z,1.17
2022-11-17T10:30:01.066Z,1.97
2022-11-17T10:32:31.926Z,2.03
2022-11-17T10:35:14.803Z,0.70
2022-11-17T10:37:45.580Z,1.20
2022-11-17T10:40:25.019Z,0.90
2022-11-17T10:43:08.474Z,0.90
2022-11-17T10:45:37.027Z,0.87
2022-11-17T10:48:21.698Z,0.50
2022-11-17T10:50:54.513Z,0.57
2022-11-17T10:53:24.496Z,0.83
2022-11-17T10:55:57.756Z,0.50
2022-11-17T10:58:27.402Z,0.80
2022-11-17T11:00:56.969Z,1.63
2022-11-17T11:03:28.232Z,0.63
2022-11-17T11:05:57.576Z,0.57
2022-11-17T11:08:26.911Z,2.20
2022-11-17T11:10:55.946Z,0.77
2022-11-17T11:13:27.942Z,0.50
2022-11-17T11:15:56.510Z,0.83
2022-11-17T11:18:25.129Z,0.70
2022-11-17T11:20:59.601Z,0.60
2022-11-17T11:23:35.811Z,0.50
2022-11-17T11:26:10.147Z,1.00
2022-11-17T11:28:46.364Z,0.80
2022-11-17T11:31:22.603Z,0.40
2022-11-17T11:33:52.682Z,1.27
2022-11-17T11:36:27.385Z,0.67
2022-11-17T11:38:58.837Z,1.23
2022-11-17T11:41:38.288Z,0.70
2022-11-17T11:44:20.374Z,0.80
2022-11-17T11:46:53.906Z,0.80
2022-11-17T11:49:28.727Z,0.60
2022-11-17T11:51:58.861Z,0.53
2022-11-17T11:54:32.607Z,0.83
2022-11-17T11:57:02.508Z,0.87
2022-11-17T11:59:35.485Z,0.60
2022-11-17T12:02:08.822Z,0.87
2022-11-17T12:04:40.982Z,0.80
2022-11-17T12:07:15.926Z,0.70
2022-11-17T12:09:48.407Z,0.73
2022-11-17T12:12:17.977Z,1.20
2022-11-17T12:15:08.327Z,0.70
2022-11-17T12:17:37.201Z,0.90
2022-11-17T12:20:10.928Z,0.70
2022-11-17T12:23:00.737Z,1.00
2022-11-17T12:25:31.926Z,0.63
2022-11-17T12:28:00.514Z,0.70
2022-11-17T12:30:47.694Z,1.57
2022-11-17T12:33:16.266Z,0.97
2022-11-17T12:35:44.917Z,1.27
2022-11-17T12:38:32.011Z,0.80
2022-11-17T12:41:01.940Z,0.77
2022-11-17T12:43:30.607Z,1.00
2022-11-17T12:46:05.673Z,0.53
2022-11-17T12:48:35.823Z,1.40
2022-11-17T12:51:08.532Z,1.20
2022-11-17T12:53:41.449Z,1.00
2022-11-17T12:56:40.023Z,1.33
2022-11-17T12:59:33.385Z,1.17
2022-11-17T13:02:05.850Z,1.33
2022-11-17T13:04:36.675Z,1.57
2022-11-17T13:07:06.014Z,0.80
2022-11-17T13:09:35.210Z,1.30
2022-11-17T13:12:05.024Z,1.57
2022-11-17T13:14:36.242Z,0.90
2022-11-17T13:17:04.960Z,1.23
2022-11-17T13:19:35.703Z,1.20
2022-11-17T13:22:05.673Z,0.80
2022-11-17T13:24:35.829Z,1.07
2022-11-17T13:27:07.210Z,0.87
2022-11-17T13:29:37.881Z,0.90
2022-11-17T13:32:07.731Z,1.20
2022-11-17T13:34:36.338Z,1.40
2022-11-17T13:37:04.945Z,1.33
2022-11-17T13:39:33.667Z,2.63
2022-11-17T13:42:03.142Z,1.00
2022-11-17T13:44:32.438Z,0.93
2022-11-17T13:47:20.309Z,1.40
2022-11-17T13:49:50.698Z,1.20
2022-11-17T13:52:35.242Z,2.00
2022-11-17T13:55:09.478Z,1.57
2022-11-17T13:57:38.807Z,2.73
2022-11-17T14:00:07.911Z,1.30
2022-11-17T14:02:36.647Z,1.50
2022-11-17T14:05:07.604Z,1.23
2022-11-17T14:07:37.729Z,1.60
2022-11-17T14:10:16.352Z,1.60
2022-11-17T14:12:45.257Z,0.90
2022-11-17T14:15:16.942Z,0.87
2022-11-17T14:17:50.061Z,1.20
2022-11-17T14:20:21.001Z,1.37
2022-11-17T14:23:02.598Z,1.33
2022-11-17T14:25:31.156Z,1.13
2022-11-17T14:27:59.693Z,0.90
2022-11-17T14:30:28.417Z,0.93
2022-11-17T14:33:05.367Z,2.10
2022-11-17T14:35:38.019Z,1.17
2022-11-17T14:38:06.638Z,2.63
2022-11-17T14:40:35.182Z,1.50
2022-11-17T14:43:03.883Z,2.07
2022-11-17T14:45:35.213Z,1.30
2022-11-17T14:48:05.878Z,1.27
2022-11-17T14:50:34.468Z,1.43
2022-11-17T14:53:04.784Z,1.57
2022-11-17T14:55:33.360Z,1.50
2022-11-17T14:58:01.929Z,1.33
2022-11-17T15:00:30.529Z,1.07
2022-11-17T15:02:59.074Z,1.30
2022-11-17T15:05:27.624Z,1.03
2022-11-17T15:07:57.344Z,1.13
2022-11-17T15:10:27.370Z,0.90
2022-11-17T15:12:55.965Z,0.60
2022-11-17T15:15:24.547Z,1.13
2022-11-17T15:17:53.126Z,1.07
2022-11-17T15:20:21.695Z,1.00
2022-11-17T15:22:51.270Z,1.23
2022-11-17T15:25:19.849Z,0.77
2022-11-17T15:27:49.770Z,0.73
2022-11-17T15:30:18.773Z,0.80
2022-11-17T15:32:47.328Z,1.10
2022-11-17T15:35:15.915Z,1.00
2022-11-17T15:37:44.502Z,1.20
2022-11-17T15:40:19.102Z,1.80
2022-11-17T15:42:48.109Z,0.50
2022-11-17T15:45:18.057Z,0.60
2022-11-17T15:47:46.679Z,1.30
2022-11-17T15:50:15.364Z,0.83
2022-11-17T15:53:05.417Z,1.13
2022-11-17T15:55:32.449Z,1.03
2022-11-17T15:58:01.038Z,0.73
2022-11-17T16:00:33.073Z,0.47
2022-11-17T16:03:01.679Z,1.43
2022-11-17T16:05:30.278Z,0.40
2022-11-17T16:07:58.874Z,0.67
2022-11-17T16:10:28.118Z,0.60
2022-11-17T16:12:57.341Z,0.90
2022-11-17T16:15:25.922Z,0.50
2022-11-17T16:17:55.883Z,0.70
2022-11-17T16:20:24.477Z,0.70
2022-11-17T16:22:53.241Z,0.90
2022-11-17T16:25:21.854Z,0.80
2022-11-17T16:27:50.453Z,1.00
2022-11-17T16:30:19.574Z,0.70
2022-11-17T16:32:48.180Z,1.10
2022-11-17T16:35:18.211Z,0.77
2022-11-17T16:37:46.791Z,1.10
2022-11-17T16:40:15.374Z,0.77
2022-11-17T16:42:43.991Z,0.80
2022-11-17T16:45:12.626Z,0.70
2022-11-17T16:47:41.251Z,1.10
2022-11-17T16:50:10.121Z,1.30
2022-11-17T16:52:40.066Z,1.70
2022-11-17T16:55:09.283Z,1.20
2022-11-17T16:57:37.946Z,1.10
2022-11-17T17:00:07.447Z,1.03
2022-11-17T17:02:36.067Z,1.30
2022-11-17T17:05:04.669Z,0.93
2022-11-17T17:07:33.327Z,1.40
2022-11-17T17:10:03.670Z,1.17
2022-11-17T17:12:32.234Z,1.23
2022-11-17T17:15:00.785Z,1.40
2022-11-17T17:17:29.359Z,0.90
2022-11-17T17:19:57.914Z,1.17
2022-11-17T17:22:26.482Z,1.30
2022-11-17T17:24:55.069Z,0.97
2022-11-17T17:27:25.237Z,0.80
2022-11-17T17:29:56.787Z,2.03
2022-11-17T17:32:25.530Z,0.93
2022-11-17T17:34:54.190Z,0.60
2022-11-17T17:37:22.793Z,1.33
2022-11-17T17:39:51.361Z,0.93
2022-11-17T17:42:20.405Z,0.80
2022-11-17T17:44:50.362Z,1.10
2022-11-17T17:47:18.940Z,0.93
2022-11-17T17:49:47.530Z,0.80
2022-11-17T17:52:16.082Z,1.37
2022-11-17T17:54:44.671Z,1.20
2022-11-17T17:57:13.241Z,2.67
2022-11-17T17:59:41.917Z,2.20
2022-11-17T18:02:12.103Z,1.33
2022-11-17T18:04:40.713Z,1.30
2022-11-17T18:07:09.542Z,1.03
2022-11-17T18:09:38.109Z,1.00
2022-11-17T18:12:06.880Z,0.70
2022-11-17T18:14:35.457Z,1.07
2022-11-17T18:17:04.006Z,1.00
2022-11-17T18:19:33.990Z,1.37
2022-11-17T18:22:02.554Z,1.10
2022-11-17T18:24:31.140Z,1.10
2022-11-17T18:26:59.724Z,1.20
2022-11-17T18:29:28.294Z,1.17
2022-11-17T18:31:56.902Z,1.10
2022-11-17T18:34:26.297Z,1.10
2022-11-17T18:36:56.499Z,1.20
2022-11-17T18:39:25.248Z,1.03
2022-11-17T18:41:53.834Z,0.70
2022-11-17T18:44:22.533Z,1.00
2022-11-17T18:46:51.185Z,0.77
2022-11-17T18:49:20.091Z,0.83
2022-11-17T18:51:48.926Z,0.90
2022-11-17T18:54:18.829Z,1.53
2022-11-17T18:56:47.409Z,1.17
2022-11-17T18:59:18.414Z,1.03
2022-11-17T19:01:47.350Z,1.10
2022-11-17T19:04:16.373Z,2.00
2022-11-17T19:06:45.394Z,1.30
2022-11-17T19:09:14.652Z,1.40
2022-11-17T19:11:44.990Z,1.37
2022-11-17T19:14:13.595Z,1.50
2022-11-17T19:16:44.877Z,1.43
2022-11-17T19:19:14.957Z,1.30
2022-11-17T19:21:44.417Z,1.37
2022-11-17T19:24:13.307Z,1.80
2022-11-17T19:26:42.673Z,1.43
2022-11-17T19:29:17.107Z,1.03
2022-11-17T19:31:46.229Z,1.33
2022-11-17T19:34:14.914Z,1.33
2022-11-17T19:36:44.298Z,1.23
2022-11-17T19:39:13.990Z,1.17
2022-11-17T19:41:43.559Z,0.93
2022-11-17T19:44:13.518Z,1.20
2022-11-17T19:46:43.143Z,1.00
2022-11-17T19:49:12.976Z,1.00
2022-11-17T19:51:42.120Z,1.63
2022-11-17T19:54:11.277Z,1.23
2022-11-17T19:56:39.837Z,1.43
2022-11-17T19:59:13.981Z,1.37
2022-11-17T20:01:46.510Z,1.10
2022-11-17T20:04:15.320Z,0.90
2022-11-17T20:06:43.926Z,1.60
2022-11-17T20:09:13.724Z,1.13
2022-11-17T20:11:42.453Z,0.87
2022-11-17T20:14:11.368Z,1.00
2022-11-17T20:16:39.891Z,1.13
2022-11-17T20:19:14.691Z,1.00
2022-11-17T20:21:43.483Z,1.00
2022-11-17T20:24:12.230Z,0.80
2022-11-17T20:26:42.913Z,1.37
2022-11-17T20:29:11.520Z,1.20
2022-11-17T20:31:40.110Z,1.17
2022-11-17T20:34:13.234Z,1.43
2022-11-17T20:36:41.785Z,1.07
2022-11-17T20:39:11.143Z,1.07
2022-11-17T20:41:39.706Z,0.73
2022-11-17T20:44:23.591Z,1.23
2022-11-17T20:46:52.562Z,1.00
2022-11-17T20:49:22.584Z,1.47
2022-11-17T20:51:51.177Z,1.57
2022-11-17T20:54:19.780Z,1.43
2022-11-17T20:56:48.335Z,1.00
2022-11-17T20:59:19.993Z,1.37
2022-11-17T21:01:50.154Z,1.27
2022-11-17T21:04:18.730Z,0.90
2022-11-17T21:06:48.674Z,1.07
2022-11-17T21:09:17.816Z,1.07
2022-11-17T21:11:59.124Z,0.90
2022-11-17T21:14:28.525Z,1.77
2022-11-17T21:17:00.398Z,0.63
2022-11-17T21:19:31.128Z,1.37
2022-11-17T21:22:03.261Z,1.10
2022-11-17T21:24:31.830Z,0.80
2022-11-17T21:27:03.128Z,0.83
2022-11-17T21:29:32.986Z,0.80
2022-11-17T21:32:01.583Z,1.03
2022-11-17T21:34:30.226Z,0.80
2022-11-17T21:36:58.868Z,0.87
2022-11-17T21:39:28.793Z,1.00
2022-11-17T21:41:57.445Z,1.27
2022-11-17T21:44:26.150Z,1.20
2022-11-17T21:46:54.710Z,1.00
2022-11-17T21:49:23.401Z,0.93
2022-11-17T21:51:52.101Z,0.83
2022-11-17T21:54:20.686Z,1.00
2022-11-17T21:56:50.581Z,1.03
2022-11-17T21:59:19.421Z,0.70
2022-11-17T22:01:48.242Z,1.17
2022-11-17T22:04:16.994Z,1.10
2022-11-17T22:06:45.570Z,1.07
2022-11-17T22:09:14.795Z,0.93
2022-11-17T22:11:43.644Z,0.80
2022-11-17T22:14:14.377Z,1.10
2022-11-17T22:16:43.793Z,0.90
2022-11-17T22:19:13.234Z,0.90
2022-11-17T22:21:42.181Z,1.10
2022-11-17T22:24:11.804Z,0.70
2022-11-17T22:26:41.174Z,1.00
2022-11-17T22:29:11.970Z,0.77
2022-11-17T22:31:41.921Z,0.87
2022-11-17T22:34:10.482Z,0.90
2022-11-17T22:36:39.065Z,0.90
2022-11-17T22:39:07.774Z,0.83
2022-11-17T22:41:36.462Z,0.83
2022-11-17T22:44:05.076Z,1.20
2022-11-17T22:46:33.625Z,1.50
2022-11-17T22:49:03.753Z,1.20
2022-11-17T22:51:50.354Z,1.30
2022-11-17T22:54:18.927Z,1.03
2022-11-17T22:56:47.521Z,0.77
2022-11-17T22:59:16.433Z,1.00
2022-11-17T23:01:45.254Z,0.63
2022-11-17T23:04:16.296Z,0.87
2022-11-17T23:06:45.132Z,1.03
2022-11-17T23:09:13.961Z,1.37
2022-11-17T23:11:43.231Z,1.00
2022-11-17T23:14:13.139Z,0.70
2022-11-17T23:16:42.123Z,1.10
2022-11-17T23:19:13.718Z,0.87
2022-11-17T23:21:43.658Z,0.70
2022-11-17T23:24:14.434Z,0.93
2022-11-17T23:26:43.648Z,1.33
2022-11-17T23:29:12.452Z,0.80
2022-11-17T23:31:41.105Z,1.10
2022-11-17T23:34:10.108Z,1.60
2022-11-17T23:36:38.722Z,1.30
2022-11-17T23:39:08.619Z,1.97
2022-11-17T23:41:37.225Z,2.37
2022-11-17T23:44:05.981Z,1.27
2022-11-17T23:46:34.601Z,0.73
2022-11-17T23:49:03.259Z,1.23
2022-11-17T23:51:31.943Z,1.50
2022-11-17T23:54:01.411Z,0.80
2022-11-17T23:56:33.451Z,1.20
2022-11-17T23:59:02.025Z,0.97
